sensor_id;sensor_type;location;lat;lon;timestamp;P1;durP1;ratioP1;P2;durP2;ratioP2
16998;SDS011;10211;49.476;11.010;2023-07-20T00:00:01;5.03;;;3.23;;
16998;SDS011;10211;49.476;11.010;2023-07-20T00:02:27;6.67;;;4.30;;
16998;SDS011;10211;49.476;11.010;2023-07-20T00:04:54;4.23;;;3.83;;
16998;SDS011;10211;49.476;11.010;2023-07-20T00:07:21;6.00;;;3.50;;
16998;SDS011;10211;49.476;11.010;2023-07-20T00:09:49;6.03;;;4.13;;
16998;SDS011;10211;49.476;11.010;2023-07-20T00:12:16;7.17;;;3.70;;
16998;SDS011;10211;49.476;11.010;2023-07-20T00:14:42;4.17;;;3.77;;
16998;SDS011;10211;49.476;11.010;2023-07-20T00:17:09;4.33;;;3.40;;
16998;SDS011;10211;49.476;11.010;2023-07-20T00:19:36;4.13;;;3.17;;
16998;SDS011;10211;49.476;11.010;2023-07-20T00:22:02;4.27;;;3.83;;
16998;SDS011;10211;49.476;11.010;2023-07-20T00:24:30;9.10;;;3.50;;
16998;SDS011;10211;49.476;11.010;2023-07-20T00:26:58;6.43;;;4.30;;
16998;SDS011;10211;49.476;11.010;2023-07-20T00:29:27;9.37;;;4.67;;
16998;SDS011;10211;49.476;11.010;2023-07-20T00:31:54;5.50;;;3.30;;
16998;SDS011;10211;49.476;11.010;2023-07-20T00:34:21;7.53;;;3.90;;
16998;SDS011;10211;49.476;11.010;2023-07-20T00:36:48;5.63;;;3.73;;
16998;SDS011;10211;49.476;11.010;2023-07-20T00:39:15;3.83;;;3.53;;
16998;SDS011;10211;49.476;11.010;2023-07-20T00:41:41;6.87;;;3.53;;
16998;SDS011;10211;49.476;11.010;2023-07-20T00:44:09;4.63;;;3.93;;
16998;SDS011;10211;49.476;11.010;2023-07-20T00:46:36;7.10;;;4.03;;
16998;SDS011;10211;49.476;11.010;2023-07-20T00:49:03;7.50;;;3.73;;
16998;SDS011;10211;49.476;11.010;2023-07-20T00:51:31;6.47;;;3.87;;
16998;SDS011;10211;49.476;11.010;2023-07-20T00:53:58;6.80;;;3.80;;
16998;SDS011;10211;49.476;11.010;2023-07-20T00:56:25;5.43;;;3.97;;
16998;SDS011;10211;49.476;11.010;2023-07-20T00:58:52;6.20;;;3.63;;
16998;SDS011;10211;49.476;11.010;2023-07-20T01:01:20;8.07;;;3.67;;
16998;SDS011;10211;49.476;11.010;2023-07-20T01:03:48;4.83;;;4.03;;
16998;SDS011;10211;49.476;11.010;2023-07-20T01:06:15;7.73;;;4.33;;
16998;SDS011;10211;49.476;11.010;2023-07-20T01:08:53;6.07;;;3.73;;
16998;SDS011;10211;49.476;11.010;2023-07-20T01:11:28;5.43;;;3.83;;
16998;SDS011;10211;49.476;11.010;2023-07-20T01:14:02;8.30;;;5.10;;
16998;SDS011;10211;49.476;11.010;2023-07-20T01:16:30;5.57;;;4.03;;
16998;SDS011;10211;49.476;11.010;2023-07-20T01:18:58;7.37;;;4.13;;
16998;SDS011;10211;49.476;11.010;2023-07-20T01:21:26;6.53;;;4.13;;
16998;SDS011;10211;49.476;11.010;2023-07-20T01:24:05;5.33;;;4.83;;
16998;SDS011;10211;49.476;11.010;2023-07-20T01:26:56;9.33;;;4.17;;
16998;SDS011;10211;49.476;11.010;2023-07-20T01:29:37;4.63;;;4.03;;
16998;SDS011;10211;49.476;11.010;2023-07-20T01:32:16;5.97;;;3.63;;
16998;SDS011;10211;49.476;11.010;2023-07-20T01:34:45;11.80;;;4.30;;
16998;SDS011;10211;49.476;11.010;2023-07-20T01:37:13;5.00;;;3.80;;
16998;SDS011;10211;49.476;11.010;2023-07-20T01:39:45;5.07;;;3.83;;
16998;SDS011;10211;49.476;11.010;2023-07-20T01:42:12;7.67;;;4.47;;
16998;SDS011;10211;49.476;11.010;2023-07-20T01:44:39;8.93;;;4.90;;
16998;SDS011;10211;49.476;11.010;2023-07-20T01:47:05;6.03;;;3.97;;
16998;SDS011;10211;49.476;11.010;2023-07-20T01:49:34;7.73;;;5.20;;
16998;SDS011;10211;49.476;11.010;2023-07-20T01:52:00;8.83;;;4.90;;
16998;SDS011;10211;49.476;11.010;2023-07-20T01:54:27;6.00;;;4.67;;
16998;SDS011;10211;49.476;11.010;2023-07-20T01:56:54;8.50;;;5.10;;
16998;SDS011;10211;49.476;11.010;2023-07-20T01:59:20;6.27;;;4.60;;
16998;SDS011;10211;49.476;11.010;2023-07-20T02:01:47;6.13;;;4.40;;
16998;SDS011;10211;49.476;11.010;2023-07-20T02:04:14;9.57;;;5.47;;
16998;SDS011;10211;49.476;11.010;2023-07-20T02:06:42;4.30;;;3.90;;
16998;SDS011;10211;49.476;11.010;2023-07-20T02:09:08;10.37;;;5.10;;
16998;SDS011;10211;49.476;11.010;2023-07-20T02:11:35;12.53;;;5.83;;
16998;SDS011;10211;49.476;11.010;2023-07-20T02:14:02;8.87;;;5.63;;
16998;SDS011;10211;49.476;11.010;2023-07-20T02:16:29;9.27;;;4.60;;
16998;SDS011;10211;49.476;11.010;2023-07-20T02:18:55;5.77;;;4.03;;
16998;SDS011;10211;49.476;11.010;2023-07-20T02:21:23;7.43;;;4.97;;
16998;SDS011;10211;49.476;11.010;2023-07-20T02:23:51;6.90;;;4.13;;
16998;SDS011;10211;49.476;11.010;2023-07-20T02:26:18;9.27;;;5.03;;
16998;SDS011;10211;49.476;11.010;2023-07-20T02:28:44;9.13;;;5.07;;
16998;SDS011;10211;49.476;11.010;2023-07-20T02:31:11;9.83;;;6.23;;
16998;SDS011;10211;49.476;11.010;2023-07-20T02:33:38;7.90;;;4.70;;
16998;SDS011;10211;49.476;11.010;2023-07-20T02:36:04;5.57;;;4.83;;
16998;SDS011;10211;49.476;11.010;2023-07-20T02:38:31;5.40;;;4.27;;
16998;SDS011;10211;49.476;11.010;2023-07-20T02:40:59;6.87;;;4.57;;
16998;SDS011;10211;49.476;11.010;2023-07-20T02:43:26;6.83;;;4.43;;
16998;SDS011;10211;49.476;11.010;2023-07-20T02:45:52;9.30;;;4.70;;
16998;SDS011;10211;49.476;11.010;2023-07-20T02:48:19;8.93;;;5.20;;
16998;SDS011;10211;49.476;11.010;2023-07-20T02:50:46;9.37;;;4.77;;
16998;SDS011;10211;49.476;11.010;2023-07-20T02:53:13;7.80;;;4.83;;
16998;SDS011;10211;49.476;11.010;2023-07-20T02:55:39;8.90;;;4.40;;
16998;SDS011;10211;49.476;11.010;2023-07-20T02:58:07;5.13;;;4.30;;
16998;SDS011;10211;49.476;11.010;2023-07-20T03:00:34;6.50;;;4.47;;
16998;SDS011;10211;49.476;11.010;2023-07-20T03:03:01;6.33;;;4.77;;
16998;SDS011;10211;49.476;11.010;2023-07-20T03:05:28;9.13;;;3.63;;
16998;SDS011;10211;49.476;11.010;2023-07-20T03:07:55;6.47;;;4.00;;
16998;SDS011;10211;49.476;11.010;2023-07-20T03:10:21;5.80;;;4.90;;
16998;SDS011;10211;49.476;11.010;2023-07-20T03:12:48;8.27;;;4.63;;
16998;SDS011;10211;49.476;11.010;2023-07-20T03:15:16;4.50;;;4.10;;
16998;SDS011;10211;49.476;11.010;2023-07-20T03:17:43;5.00;;;4.20;;
16998;SDS011;10211;49.476;11.010;2023-07-20T03:20:10;7.50;;;4.83;;
16998;SDS011;10211;49.476;11.010;2023-07-20T03:22:38;8.60;;;4.77;;
16998;SDS011;10211;49.476;11.010;2023-07-20T03:25:05;7.07;;;4.43;;
16998;SDS011;10211;49.476;11.010;2023-07-20T03:27:32;4.63;;;3.93;;
16998;SDS011;10211;49.476;11.010;2023-07-20T03:29:58;7.33;;;4.50;;
16998;SDS011;10211;49.476;11.010;2023-07-20T03:32:26;7.27;;;4.47;;
16998;SDS011;10211;49.476;11.010;2023-07-20T03:34:53;8.90;;;4.00;;
16998;SDS011;10211;49.476;11.010;2023-07-20T03:37:20;6.07;;;4.20;;
16998;SDS011;10211;49.476;11.010;2023-07-20T03:39:47;5.13;;;4.57;;
16998;SDS011;10211;49.476;11.010;2023-07-20T03:42:14;5.57;;;4.40;;
16998;SDS011;10211;49.476;11.010;2023-07-20T03:44:40;8.97;;;4.97;;
16998;SDS011;10211;49.476;11.010;2023-07-20T03:47:07;9.23;;;4.10;;
16998;SDS011;10211;49.476;11.010;2023-07-20T03:49:35;8.47;;;4.23;;
16998;SDS011;10211;49.476;11.010;2023-07-20T03:52:02;10.73;;;5.20;;
16998;SDS011;10211;49.476;11.010;2023-07-20T03:54:29;6.70;;;3.93;;
16998;SDS011;10211;49.476;11.010;2023-07-20T03:56:56;9.30;;;5.23;;
16998;SDS011;10211;49.476;11.010;2023-07-20T03:59:23;4.47;;;4.07;;
16998;SDS011;10211;49.476;11.010;2023-07-20T04:01:49;5.97;;;4.20;;
16998;SDS011;10211;49.476;11.010;2023-07-20T04:04:16;10.67;;;3.97;;
16998;SDS011;10211;49.476;11.010;2023-07-20T04:06:44;8.43;;;4.07;;
16998;SDS011;10211;49.476;11.010;2023-07-20T04:09:11;9.43;;;4.53;;
16998;SDS011;10211;49.476;11.010;2023-07-20T04:11:38;5.20;;;4.20;;
16998;SDS011;10211;49.476;11.010;2023-07-20T04:14:05;6.83;;;4.33;;
16998;SDS011;10211;49.476;11.010;2023-07-20T04:16:32;6.07;;;3.90;;
16998;SDS011;10211;49.476;11.010;2023-07-20T04:18:59;5.30;;;4.17;;
16998;SDS011;10211;49.476;11.010;2023-07-20T04:21:26;9.60;;;4.07;;
16998;SDS011;10211;49.476;11.010;2023-07-20T04:23:55;4.53;;;3.77;;
16998;SDS011;10211;49.476;11.010;2023-07-20T04:26:21;6.30;;;4.00;;
16998;SDS011;10211;49.476;11.010;2023-07-20T04:28:48;10.13;;;4.07;;
16998;SDS011;10211;49.476;11.010;2023-07-20T04:31:16;6.63;;;3.70;;
16998;SDS011;10211;49.476;11.010;2023-07-20T04:33:43;6.83;;;4.00;;
16998;SDS011;10211;49.476;11.010;2023-07-20T04:36:11;7.83;;;4.20;;
16998;SDS011;10211;49.476;11.010;2023-07-20T04:38:39;4.53;;;3.40;;
16998;SDS011;10211;49.476;11.010;2023-07-20T04:41:08;4.80;;;3.77;;
16998;SDS011;10211;49.476;11.010;2023-07-20T04:43:35;7.10;;;4.23;;
16998;SDS011;10211;49.476;11.010;2023-07-20T04:46:01;5.57;;;3.80;;
16998;SDS011;10211;49.476;11.010;2023-07-20T04:48:28;10.13;;;3.50;;
16998;SDS011;10211;49.476;11.010;2023-07-20T04:50:55;6.67;;;4.20;;
16998;SDS011;10211;49.476;11.010;2023-07-20T04:53:21;5.80;;;4.03;;
16998;SDS011;10211;49.476;11.010;2023-07-20T04:55:48;7.83;;;4.10;;
16998;SDS011;10211;49.476;11.010;2023-07-20T04:58:21;8.20;;;4.37;;
16998;SDS011;10211;49.476;11.010;2023-07-20T05:00:48;9.90;;;3.70;;
16998;SDS011;10211;49.476;11.010;2023-07-20T05:03:15;6.07;;;3.57;;
16998;SDS011;10211;49.476;11.010;2023-07-20T05:05:41;6.73;;;3.70;;
16998;SDS011;10211;49.476;11.010;2023-07-20T05:08:08;6.57;;;3.67;;
16998;SDS011;10211;49.476;11.010;2023-07-20T05:10:35;12.20;;;4.10;;
16998;SDS011;10211;49.476;11.010;2023-07-20T05:13:02;12.87;;;4.30;;
16998;SDS011;10211;49.476;11.010;2023-07-20T05:15:30;10.53;;;4.20;;
16998;SDS011;10211;49.476;11.010;2023-07-20T05:17:59;5.43;;;3.87;;
16998;SDS011;10211;49.476;11.010;2023-07-20T05:20:25;8.83;;;4.23;;
16998;SDS011;10211;49.476;11.010;2023-07-20T05:22:52;4.93;;;4.00;;
16998;SDS011;10211;49.476;11.010;2023-07-20T05:25:19;6.10;;;3.70;;
16998;SDS011;10211;49.476;11.010;2023-07-20T05:27:47;5.17;;;3.43;;
16998;SDS011;10211;49.476;11.010;2023-07-20T05:30:15;8.53;;;3.90;;
16998;SDS011;10211;49.476;11.010;2023-07-20T05:32:43;4.23;;;3.57;;
16998;SDS011;10211;49.476;11.010;2023-07-20T05:35:12;8.33;;;3.60;;
16998;SDS011;10211;49.476;11.010;2023-07-20T05:37:40;8.33;;;3.53;;
16998;SDS011;10211;49.476;11.010;2023-07-20T05:40:08;7.37;;;3.63;;
16998;SDS011;10211;49.476;11.010;2023-07-20T05:42:37;7.07;;;4.27;;
16998;SDS011;10211;49.476;11.010;2023-07-20T05:45:04;5.67;;;3.30;;
16998;SDS011;10211;49.476;11.010;2023-07-20T05:47:31;3.83;;;3.33;;
16998;SDS011;10211;49.476;11.010;2023-07-20T05:49:59;7.90;;;2.80;;
16998;SDS011;10211;49.476;11.010;2023-07-20T05:52:26;8.20;;;3.23;;
16998;SDS011;10211;49.476;11.010;2023-07-20T05:54:52;5.37;;;2.93;;
16998;SDS011;10211;49.476;11.010;2023-07-20T05:57:19;4.27;;;2.70;;
16998;SDS011;10211;49.476;11.010;2023-07-20T05:59:46;7.23;;;2.60;;
16998;SDS011;10211;49.476;11.010;2023-07-20T06:02:13;7.00;;;2.37;;
16998;SDS011;10211;49.476;11.010;2023-07-20T06:04:39;6.80;;;2.67;;
16998;SDS011;10211;49.476;11.010;2023-07-20T06:07:07;9.03;;;2.97;;
16998;SDS011;10211;49.476;11.010;2023-07-20T06:09:34;3.37;;;2.47;;
16998;SDS011;10211;49.476;11.010;2023-07-20T06:12:01;6.83;;;2.60;;
16998;SDS011;10211;49.476;11.010;2023-07-20T06:14:28;8.73;;;2.57;;
16998;SDS011;10211;49.476;11.010;2023-07-20T06:16:55;2.50;;;2.30;;
16998;SDS011;10211;49.476;11.010;2023-07-20T06:19:21;6.07;;;2.60;;
16998;SDS011;10211;49.476;11.010;2023-07-20T06:21:48;7.00;;;2.57;;
16998;SDS011;10211;49.476;11.010;2023-07-20T06:24:16;9.00;;;2.50;;
16998;SDS011;10211;49.476;11.010;2023-07-20T06:26:43;3.17;;;2.83;;
16998;SDS011;10211;49.476;11.010;2023-07-20T06:29:10;6.67;;;2.97;;
16998;SDS011;10211;49.476;11.010;2023-07-20T06:31:37;5.67;;;2.80;;
16998;SDS011;10211;49.476;11.010;2023-07-20T06:34:04;4.07;;;2.77;;
16998;SDS011;10211;49.476;11.010;2023-07-20T06:36:30;4.53;;;2.90;;
16998;SDS011;10211;49.476;11.010;2023-07-20T06:38:57;6.43;;;2.83;;
16998;SDS011;10211;49.476;11.010;2023-07-20T06:41:25;4.67;;;3.30;;
16998;SDS011;10211;49.476;11.010;2023-07-20T06:43:52;10.53;;;2.80;;
16998;SDS011;10211;49.476;11.010;2023-07-20T06:46:23;4.80;;;3.20;;
16998;SDS011;10211;49.476;11.010;2023-07-20T06:48:50;4.97;;;2.87;;
16998;SDS011;10211;49.476;11.010;2023-07-20T06:51:16;3.03;;;2.73;;
16998;SDS011;10211;49.476;11.010;2023-07-20T06:53:43;3.77;;;2.90;;
16998;SDS011;10211;49.476;11.010;2023-07-20T06:56:11;3.50;;;2.67;;
16998;SDS011;10211;49.476;11.010;2023-07-20T06:58:39;3.23;;;2.60;;
16998;SDS011;10211;49.476;11.010;2023-07-20T07:01:07;4.77;;;2.47;;
16998;SDS011;10211;49.476;11.010;2023-07-20T07:03:34;7.07;;;2.47;;
16998;SDS011;10211;49.476;11.010;2023-07-20T07:06:01;3.10;;;2.43;;
16998;SDS011;10211;49.476;11.010;2023-07-20T07:08:28;3.53;;;2.40;;
16998;SDS011;10211;49.476;11.010;2023-07-20T07:10:55;2.93;;;2.00;;
16998;SDS011;10211;49.476;11.010;2023-07-20T07:13:22;3.60;;;2.13;;
16998;SDS011;10211;49.476;11.010;2023-07-20T07:15:51;3.73;;;2.13;;
16998;SDS011;10211;49.476;11.010;2023-07-20T07:18:18;4.77;;;2.87;;
16998;SDS011;10211;49.476;11.010;2023-07-20T07:20:50;7.83;;;1.90;;
16998;SDS011;10211;49.476;11.010;2023-07-20T07:23:17;5.17;;;2.40;;
16998;SDS011;10211;49.476;11.010;2023-07-20T07:25:44;2.57;;;2.00;;
16998;SDS011;10211;49.476;11.010;2023-07-20T07:28:11;3.10;;;2.17;;
16998;SDS011;10211;49.476;11.010;2023-07-20T07:30:38;2.33;;;1.70;;
16998;SDS011;10211;49.476;11.010;2023-07-20T07:33:06;2.00;;;1.90;;
16998;SDS011;10211;49.476;11.010;2023-07-20T07:35:33;4.33;;;2.20;;
16998;SDS011;10211;49.476;11.010;2023-07-20T07:38:00;4.47;;;2.87;;
16998;SDS011;10211;49.476;11.010;2023-07-20T07:40:27;5.47;;;2.03;;
16998;SDS011;10211;49.476;11.010;2023-07-20T07:42:53;2.57;;;1.93;;
16998;SDS011;10211;49.476;11.010;2023-07-20T07:45:20;4.17;;;2.10;;
16998;SDS011;10211;49.476;11.010;2023-07-20T07:47:47;6.20;;;2.57;;
16998;SDS011;10211;49.476;11.010;2023-07-20T07:50:15;8.10;;;1.73;;
16998;SDS011;10211;49.476;11.010;2023-07-20T07:52:42;3.70;;;1.73;;
16998;SDS011;10211;49.476;11.010;2023-07-20T07:55:08;1.70;;;1.60;;
16998;SDS011;10211;49.476;11.010;2023-07-20T07:57:35;3.73;;;1.97;;
16998;SDS011;10211;49.476;11.010;2023-07-20T08:00:02;3.50;;;1.97;;
16998;SDS011;10211;49.476;11.010;2023-07-20T08:02:29;3.83;;;1.70;;
16998;SDS011;10211;49.476;11.010;2023-07-20T08:04:56;2.67;;;1.80;;
16998;SDS011;10211;49.476;11.010;2023-07-20T08:07:24;3.10;;;2.13;;
16998;SDS011;10211;49.476;11.010;2023-07-20T08:09:51;3.97;;;1.87;;
16998;SDS011;10211;49.476;11.010;2023-07-20T08:12:18;6.73;;;2.13;;
16998;SDS011;10211;49.476;11.010;2023-07-20T08:14:45;4.83;;;2.20;;
16998;SDS011;10211;49.476;11.010;2023-07-20T08:17:12;1.77;;;1.67;;
16998;SDS011;10211;49.476;11.010;2023-07-20T08:19:38;3.23;;;1.90;;
16998;SDS011;10211;49.476;11.010;2023-07-20T08:22:06;4.40;;;1.93;;
16998;SDS011;10211;49.476;11.010;2023-07-20T08:24:38;4.13;;;1.93;;
16998;SDS011;10211;49.476;11.010;2023-07-20T08:27:05;2.70;;;1.97;;
16998;SDS011;10211;49.476;11.010;2023-07-20T08:29:33;1.97;;;1.43;;
16998;SDS011;10211;49.476;11.010;2023-07-20T08:32:00;2.37;;;1.80;;
16998;SDS011;10211;49.476;11.010;2023-07-20T08:34:27;2.00;;;1.67;;
16998;SDS011;10211;49.476;11.010;2023-07-20T08:36:53;4.57;;;1.50;;
16998;SDS011;10211;49.476;11.010;2023-07-20T08:39:21;1.73;;;1.30;;
16998;SDS011;10211;49.476;11.010;2023-07-20T08:41:49;3.50;;;1.80;;
16998;SDS011;10211;49.476;11.010;2023-07-20T08:44:17;1.87;;;1.53;;
16998;SDS011;10211;49.476;11.010;2023-07-20T08:46:43;2.70;;;1.87;;
16998;SDS011;10211;49.476;11.010;2023-07-20T08:49:11;2.07;;;1.40;;
16998;SDS011;10211;49.476;11.010;2023-07-20T08:51:39;2.30;;;1.63;;
16998;SDS011;10211;49.476;11.010;2023-07-20T08:54:06;2.10;;;1.80;;
16998;SDS011;10211;49.476;11.010;2023-07-20T08:56:35;1.70;;;1.60;;
16998;SDS011;10211;49.476;11.010;2023-07-20T08:59:04;3.13;;;1.53;;
16998;SDS011;10211;49.476;11.010;2023-07-20T09:01:32;4.03;;;1.50;;
16998;SDS011;10211;49.476;11.010;2023-07-20T09:03:59;3.90;;;1.50;;
16998;SDS011;10211;49.476;11.010;2023-07-20T09:06:26;1.93;;;1.40;;
16998;SDS011;10211;49.476;11.010;2023-07-20T09:08:53;1.67;;;1.10;;
16998;SDS011;10211;49.476;11.010;2023-07-20T09:11:21;3.73;;;1.30;;
16998;SDS011;10211;49.476;11.010;2023-07-20T09:13:48;2.60;;;1.60;;
16998;SDS011;10211;49.476;11.010;2023-07-20T09:16:30;1.43;;;1.20;;
16998;SDS011;10211;49.476;11.010;2023-07-20T09:18:57;1.77;;;1.30;;
16998;SDS011;10211;49.476;11.010;2023-07-20T09:21:24;1.97;;;1.30;;
16998;SDS011;10211;49.476;11.010;2023-07-20T09:23:56;2.50;;;1.73;;
16998;SDS011;10211;49.476;11.010;2023-07-20T09:26:23;8.20;;;1.20;;
16998;SDS011;10211;49.476;11.010;2023-07-20T09:28:51;1.90;;;1.43;;
16998;SDS011;10211;49.476;11.010;2023-07-20T09:31:20;3.07;;;1.50;;
16998;SDS011;10211;49.476;11.010;2023-07-20T09:33:49;1.40;;;1.30;;
16998;SDS011;10211;49.476;11.010;2023-07-20T09:36:18;4.00;;;1.77;;
16998;SDS011;10211;49.476;11.010;2023-07-20T09:38:45;3.00;;;1.20;;
16998;SDS011;10211;49.476;11.010;2023-07-20T09:41:13;1.87;;;1.20;;
16998;SDS011;10211;49.476;11.010;2023-07-20T09:43:42;3.00;;;1.43;;
16998;SDS011;10211;49.476;11.010;2023-07-20T09:46:09;2.17;;;1.30;;
16998;SDS011;10211;49.476;11.010;2023-07-20T09:48:35;1.30;;;1.10;;
16998;SDS011;10211;49.476;11.010;2023-07-20T09:51:04;0.90;;;0.90;;
16998;SDS011;10211;49.476;11.010;2023-07-20T09:53:33;1.23;;;1.13;;
16998;SDS011;10211;49.476;11.010;2023-07-20T09:56:00;2.40;;;0.93;;
16998;SDS011;10211;49.476;11.010;2023-07-20T09:58:28;1.40;;;1.30;;
16998;SDS011;10211;49.476;11.010;2023-07-20T10:00:56;1.10;;;0.85;;
16998;SDS011;10211;49.476;11.010;2023-07-20T10:03:27;0.75;;;0.75;;
16998;SDS011;10211;49.476;11.010;2023-07-20T10:05:56;1.30;;;0.80;;
16998;SDS011;10211;49.476;11.010;2023-07-20T10:08:27;0.90;;;0.70;;
16998;SDS011;10211;49.476;11.010;2023-07-20T10:10:57;0.73;;;0.70;;
16998;SDS011;10211;49.476;11.010;2023-07-20T10:13:25;1.17;;;0.73;;
16998;SDS011;10211;49.476;11.010;2023-07-20T10:15:53;0.73;;;0.73;;
16998;SDS011;10211;49.476;11.010;2023-07-20T10:18:25;2.25;;;0.95;;
16998;SDS011;10211;49.476;11.010;2023-07-20T10:20:55;2.60;;;0.90;;
16998;SDS011;10211;49.476;11.010;2023-07-20T10:23:25;1.20;;;0.90;;
16998;SDS011;10211;49.476;11.010;2023-07-20T10:25:54;1.50;;;0.90;;
16998;SDS011;10211;49.476;11.010;2023-07-20T10:28:22;0.77;;;0.77;;
16998;SDS011;10211;49.476;11.010;2023-07-20T10:30:49;1.05;;;0.75;;
16998;SDS011;10211;49.476;11.010;2023-07-20T10:33:16;2.42;;;0.70;;
16998;SDS011;10211;49.476;11.010;2023-07-20T10:35:54;1.75;;;0.90;;
16998;SDS011;10211;49.476;11.010;2023-07-20T10:41:18;1.83;;;1.27;;
16998;SDS011;10211;49.476;11.010;2023-07-20T10:43:45;0.90;;;0.90;;
16998;SDS011;10211;49.476;11.010;2023-07-20T10:46:13;2.72;;;0.80;;
16998;SDS011;10211;49.476;11.010;2023-07-20T10:48:59;1.25;;;1.00;;
16998;SDS011;10211;49.476;11.010;2023-07-20T10:51:26;0.90;;;0.90;;
16998;SDS011;10211;49.476;11.010;2023-07-20T10:53:55;0.73;;;0.73;;
16998;SDS011;10211;49.476;11.010;2023-07-20T10:56:25;1.20;;;0.70;;
16998;SDS011;10211;49.476;11.010;2023-07-20T10:58:57;0.82;;;0.82;;
16998;SDS011;10211;49.476;11.010;2023-07-20T11:01:27;2.30;;;0.98;;
16998;SDS011;10211;49.476;11.010;2023-07-20T11:03:57;0.95;;;0.80;;
16998;SDS011;10211;49.476;11.010;2023-07-20T11:06:31;1.60;;;1.15;;
16998;SDS011;10211;49.476;11.010;2023-07-20T11:09:08;0.77;;;0.77;;
16998;SDS011;10211;49.476;11.010;2023-07-20T11:11:40;0.70;;;0.70;;
16998;SDS011;10211;49.476;11.010;2023-07-20T11:14:08;1.65;;;1.15;;
16998;SDS011;10211;49.476;11.010;2023-07-20T11:16:39;0.60;;;0.60;;
16998;SDS011;10211;49.476;11.010;2023-07-20T11:19:15;2.13;;;0.65;;
16998;SDS011;10211;49.476;11.010;2023-07-20T11:21:43;1.63;;;1.10;;
16998;SDS011;10211;49.476;11.010;2023-07-20T11:24:12;1.23;;;1.15;;
16998;SDS011;10211;49.476;11.010;2023-07-20T11:26:40;1.05;;;0.90;;
16998;SDS011;10211;49.476;11.010;2023-07-20T11:29:07;1.95;;;0.98;;
16998;SDS011;10211;49.476;11.010;2023-07-20T11:31:35;1.15;;;0.90;;
16998;SDS011;10211;49.476;11.010;2023-07-20T11:34:02;1.25;;;1.00;;
16998;SDS011;10211;49.476;11.010;2023-07-20T11:36:29;1.10;;;0.90;;
16998;SDS011;10211;49.476;11.010;2023-07-20T11:38:56;1.95;;;0.90;;
16998;SDS011;10211;49.476;11.010;2023-07-20T11:41:25;0.82;;;0.82;;
16998;SDS011;10211;49.476;11.010;2023-07-20T11:43:52;1.42;;;0.80;;
16998;SDS011;10211;49.476;11.010;2023-07-20T11:46:20;1.85;;;1.50;;
16998;SDS011;10211;49.476;11.010;2023-07-20T11:48:47;1.25;;;0.90;;
16998;SDS011;10211;49.476;11.010;2023-07-20T11:51:14;1.88;;;0.90;;
16998;SDS011;10211;49.476;11.010;2023-07-20T11:53:41;1.20;;;0.80;;
16998;SDS011;10211;49.476;11.010;2023-07-20T11:56:09;0.52;;;0.52;;
16998;SDS011;10211;49.476;11.010;2023-07-20T11:58:42;0.63;;;0.50;;
16998;SDS011;10211;49.476;11.010;2023-07-20T12:01:09;0.68;;;0.68;;
16998;SDS011;10211;49.476;11.010;2023-07-20T12:03:37;0.75;;;0.75;;
16998;SDS011;10211;49.476;11.010;2023-07-20T12:06:07;1.38;;;0.70;;
16998;SDS011;10211;49.476;11.010;2023-07-20T12:08:35;0.77;;;0.75;;
16998;SDS011;10211;49.476;11.010;2023-07-20T12:11:04;1.23;;;0.80;;
16998;SDS011;10211;49.476;11.010;2023-07-20T12:13:37;0.95;;;0.70;;
16998;SDS011;10211;49.476;11.010;2023-07-20T12:16:12;0.75;;;0.75;;
16998;SDS011;10211;49.476;11.010;2023-07-20T12:18:39;1.33;;;0.90;;
16998;SDS011;10211;49.476;11.010;2023-07-20T12:21:07;1.00;;;1.00;;
16998;SDS011;10211;49.476;11.010;2023-07-20T12:23:34;0.85;;;0.77;;
16998;SDS011;10211;49.476;11.010;2023-07-20T12:26:02;0.73;;;0.70;;
16998;SDS011;10211;49.476;11.010;2023-07-20T12:28:30;0.77;;;0.75;;
16998;SDS011;10211;49.476;11.010;2023-07-20T12:30:57;0.80;;;0.80;;
16998;SDS011;10211;49.476;11.010;2023-07-20T12:33:25;1.08;;;0.93;;
16998;SDS011;10211;49.476;11.010;2023-07-20T12:35:52;1.55;;;0.60;;
16998;SDS011;10211;49.476;11.010;2023-07-20T12:38:21;2.08;;;0.90;;
16998;SDS011;10211;49.476;11.010;2023-07-20T12:40:48;3.17;;;0.90;;
16998;SDS011;10211;49.476;11.010;2023-07-20T12:43:14;0.90;;;0.77;;
16998;SDS011;10211;49.476;11.010;2023-07-20T12:45:41;1.20;;;0.90;;
16998;SDS011;10211;49.476;11.010;2023-07-20T12:48:08;1.13;;;0.90;;
16998;SDS011;10211;49.476;11.010;2023-07-20T12:50:36;0.90;;;0.90;;
16998;SDS011;10211;49.476;11.010;2023-07-20T12:53:04;1.00;;;0.82;;
16998;SDS011;10211;49.476;11.010;2023-07-20T12:55:31;0.60;;;0.60;;
16998;SDS011;10211;49.476;11.010;2023-07-20T12:57:58;4.05;;;1.30;;
16998;SDS011;10211;49.476;11.010;2023-07-20T13:00:24;0.63;;;0.63;;
16998;SDS011;10211;49.476;11.010;2023-07-20T13:02:51;0.90;;;0.80;;
16998;SDS011;10211;49.476;11.010;2023-07-20T13:05:18;1.48;;;1.08;;
16998;SDS011;10211;49.476;11.010;2023-07-20T13:07:46;2.00;;;1.20;;
16998;SDS011;10211;49.476;11.010;2023-07-20T13:10:13;4.10;;;1.05;;
16998;SDS011;10211;49.476;11.010;2023-07-20T13:12:40;1.75;;;1.10;;
16998;SDS011;10211;49.476;11.010;2023-07-20T13:15:07;1.40;;;1.27;;
16998;SDS011;10211;49.476;11.010;2023-07-20T13:17:35;1.50;;;1.00;;
16998;SDS011;10211;49.476;11.010;2023-07-20T13:20:04;0.90;;;0.90;;
16998;SDS011;10211;49.476;11.010;2023-07-20T13:22:32;1.45;;;1.23;;
16998;SDS011;10211;49.476;11.010;2023-07-20T13:25:01;1.55;;;1.27;;
16998;SDS011;10211;49.476;11.010;2023-07-20T13:27:28;1.52;;;1.40;;
16998;SDS011;10211;49.476;11.010;2023-07-20T13:29:56;1.92;;;1.45;;
16998;SDS011;10211;49.476;11.010;2023-07-20T13:32:23;1.15;;;1.10;;
16998;SDS011;10211;49.476;11.010;2023-07-20T13:34:50;1.83;;;1.30;;
16998;SDS011;10211;49.476;11.010;2023-07-20T13:37:17;1.50;;;1.40;;
16998;SDS011;10211;49.476;11.010;2023-07-20T13:39:43;1.10;;;1.10;;
16998;SDS011;10211;49.476;11.010;2023-07-20T13:42:11;1.85;;;1.08;;
16998;SDS011;10211;49.476;11.010;2023-07-20T13:44:38;1.40;;;1.25;;
16998;SDS011;10211;49.476;11.010;2023-07-20T13:47:05;1.95;;;1.83;;
16998;SDS011;10211;49.476;11.010;2023-07-20T13:49:32;2.22;;;1.42;;
16998;SDS011;10211;49.476;11.010;2023-07-20T13:51:59;1.88;;;1.20;;
16998;SDS011;10211;49.476;11.010;2023-07-20T13:54:25;1.02;;;1.02;;
16998;SDS011;10211;49.476;11.010;2023-07-20T13:56:52;2.10;;;1.30;;
16998;SDS011;10211;49.476;11.010;2023-07-20T13:59:20;2.75;;;1.23;;
16998;SDS011;10211;49.476;11.010;2023-07-20T14:01:47;1.65;;;1.27;;
16998;SDS011;10211;49.476;11.010;2023-07-20T14:04:14;1.38;;;1.27;;
16998;SDS011;10211;49.476;11.010;2023-07-20T14:06:42;3.70;;;1.50;;
16998;SDS011;10211;49.476;11.010;2023-07-20T14:09:09;1.40;;;1.15;;
16998;SDS011;10211;49.476;11.010;2023-07-20T14:11:35;3.80;;;1.10;;
16998;SDS011;10211;49.476;11.010;2023-07-20T14:14:02;1.77;;;1.35;;
16998;SDS011;10211;49.476;11.010;2023-07-20T14:16:30;1.45;;;1.30;;
16998;SDS011;10211;49.476;11.010;2023-07-20T14:18:58;2.15;;;1.23;;
16998;SDS011;10211;49.476;11.010;2023-07-20T14:21:25;2.55;;;1.60;;
16998;SDS011;10211;49.476;11.010;2023-07-20T14:23:52;3.30;;;1.85;;
16998;SDS011;10211;49.476;11.010;2023-07-20T14:26:19;2.38;;;1.17;;
16998;SDS011;10211;49.476;11.010;2023-07-20T14:28:46;1.30;;;1.20;;
16998;SDS011;10211;49.476;11.010;2023-07-20T14:31:13;2.00;;;1.23;;
16998;SDS011;10211;49.476;11.010;2023-07-20T14:33:41;2.30;;;1.35;;
16998;SDS011;10211;49.476;11.010;2023-07-20T14:36:08;1.42;;;1.33;;
16998;SDS011;10211;49.476;11.010;2023-07-20T14:38:34;2.85;;;1.20;;